Terminal Aerodrome Forecast
Issued by NWS Blacksburg, VA

Current Version | Previous Version | Text Only | Print | Product List | Glossary Off
Versions: 1 2 3 4 5 6 7 8 9 10 11 12 13 14 15 16 17 18 19 20 21 22 23 24 25 26 27 28 29

000
FTUS41 KRNK 211140
TAFBLF
TAF
KBLF 211140Z 2112/2212 14006KT P6SM -RA SCT006 OVC015
      TEMPO 2112/2116 5SM -SHRA BR BKN006
     FM211600 15008KT 5SM -SHRA BR OVC015
     FM211800 17009KT 3SM SHRA BR OVC012
      TEMPO 2118/2122 1SM TSRA SCT012 OVC025CB
     FM220200 19008KT 6SM -SHRA SCT015 OVC040=

USA.gov is the U.S. government's official web portal to all federal, state and local government web resources and services.